KHEY/HEY METAR and TAF weather

Enter ICAO airport designator
Station Type Date Time Source
KHEY METAR 2022/01/19 20:58 UTC NOAA

KHEY 192058Z AUTO 19005KT 9SM CLR 19/09 A3012 RMK AO2 SLP202 T01850087 56023 $


Station Type Date Time Source
KHEY Decoded METAR 2022/01/19 20:58 UTC NOAA

Hanchey AHP / Ozark, AL, United States (KHEY) 31-21N 085-40W
Jan 19, 2022 - 03:58 PM EST / 2022.01.19 2058 UTC
Wind: from the S (190 degrees) at 6 MPH (5 KT):0
Visibility: 9 mile(s):0
Sky conditions: clear
Temperature: 65.3 F (18.5 C)
Dew Point: 47.7 F (8.7 C)
Relative Humidity: 52%
Pressure (altimeter): 30.12 in. Hg (1019 hPa)
Pressure tendency: 0.07 inches (2.3 hPa) lower than three hours ago
ob: KHEY 192058Z AUTO 19005KT 9SM CLR 19/09 A3012 RMK AO2 SLP202 T01850087 56023
cycle: 21

Station Type Date Time Source
KHEY TAF UTC NOAA

Error!

Example: see airport list